createdAt,value
2018-08-30T00:01:18.740Z,17.82
2018-08-30T00:03:49.264Z,17.85
2018-08-30T00:06:19.867Z,17.87
2018-08-30T00:08:50.362Z,17.83
2018-08-30T00:11:21.226Z,17.80
2018-08-30T00:13:51.736Z,17.76
2018-08-30T00:16:22.572Z,17.72
2018-08-30T00:18:53.160Z,17.69
2018-08-30T00:21:23.570Z,17.70
2018-08-30T00:23:54.044Z,17.70
2018-08-30T00:26:24.880Z,17.68
2018-08-30T00:28:55.187Z,17.69
2018-08-30T00:31:25.732Z,17.75
2018-08-30T00:33:56.222Z,17.68
2018-08-30T00:36:26.749Z,17.61
2018-08-30T00:38:57.188Z,17.57
2018-08-30T00:41:27.784Z,17.49
2018-08-30T00:43:58.212Z,17.45
2018-08-30T00:46:28.688Z,17.43
2018-08-30T00:49:01.131Z,17.36
2018-08-30T00:51:31.756Z,17.29
2018-08-30T00:54:02.191Z,17.33
2018-08-30T00:56:32.666Z,17.23
2018-08-30T00:59:02.968Z,17.22
2018-08-30T01:01:33.422Z,17.20
2018-08-30T01:04:03.885Z,17.14
2018-08-30T01:06:35.637Z,17.12
2018-08-30T01:09:07.745Z,17.12
2018-08-30T01:11:38.324Z,17.20
2018-08-30T01:14:08.646Z,17.18
2018-08-30T01:16:39.047Z,17.22
2018-08-30T01:19:09.549Z,17.22
2018-08-30T01:21:39.894Z,17.24
2018-08-30T01:24:10.370Z,17.26
2018-08-30T01:26:40.767Z,17.22
2018-08-30T01:29:11.360Z,17.10
2018-08-30T01:31:41.953Z,16.97
2018-08-30T01:34:13.465Z,16.91
2018-08-30T01:36:44.792Z,16.89
2018-08-30T01:39:15.184Z,17.02
2018-08-30T01:41:45.559Z,17.14
2018-08-30T01:44:16.233Z,17.24
2018-08-30T01:46:46.665Z,17.20
2018-08-30T01:49:17.195Z,17.02
2018-08-30T01:51:47.529Z,16.96
2018-08-30T01:54:17.999Z,16.87
2018-08-30T01:56:48.382Z,16.79
2018-08-30T01:59:19.613Z,16.69
2018-08-30T02:01:50.034Z,16.59
2018-08-30T02:04:20.634Z,16.53
2018-08-30T02:06:50.968Z,16.52
2018-08-30T02:09:21.364Z,16.54
2018-08-30T02:11:51.821Z,16.58
2018-08-30T02:14:22.096Z,16.67
2018-08-30T02:16:52.702Z,16.76
2018-08-30T02:19:23.379Z,16.77
2018-08-30T02:21:54.053Z,16.75
2018-08-30T02:24:24.580Z,16.87
2018-08-30T02:26:55.367Z,16.88
2018-08-30T02:29:25.842Z,16.92
2018-08-30T02:31:56.349Z,16.79
2018-08-30T02:34:26.771Z,16.94
2018-08-30T02:36:57.347Z,17.13
2018-08-30T02:39:27.793Z,17.14
2018-08-30T02:41:58.113Z,17.24
2018-08-30T02:44:28.636Z,17.20
2018-08-30T02:46:59.288Z,17.29
2018-08-30T02:49:29.806Z,17.28
2018-08-30T02:52:00.899Z,17.32
2018-08-30T02:54:31.647Z,17.31
2018-08-30T02:57:02.268Z,17.31
2018-08-30T02:59:32.806Z,17.36
2018-08-30T03:02:03.227Z,17.39
2018-08-30T03:04:33.722Z,17.45
2018-08-30T03:07:04.482Z,17.43
2018-08-30T03:09:34.861Z,17.22
2018-08-30T03:12:05.343Z,17.05
2018-08-30T03:14:36.030Z,16.97
2018-08-30T03:17:06.528Z,16.92
2018-08-30T03:19:36.972Z,16.87
2018-08-30T03:22:07.540Z,16.75
2018-08-30T03:24:38.067Z,16.66
2018-08-30T03:27:08.075Z,16.68
2018-08-30T03:29:38.436Z,16.82
2018-08-30T03:32:09.451Z,16.98
2018-08-30T03:34:40.006Z,17.13
2018-08-30T03:37:10.533Z,17.25
2018-08-30T03:39:40.827Z,17.40
2018-08-30T03:42:11.298Z,17.45
2018-08-30T03:44:41.715Z,17.30
2018-08-30T03:47:12.093Z,17.19
2018-08-30T03:49:42.554Z,17.13
2018-08-30T03:52:12.960Z,17.10
2018-08-30T03:54:43.376Z,17.09
2018-08-30T03:57:13.611Z,17.07
2018-08-30T03:59:43.850Z,17.05
2018-08-30T04:02:14.255Z,16.98
2018-08-30T04:04:44.702Z,16.96
2018-08-30T04:07:15.131Z,16.95
2018-08-30T04:09:45.449Z,16.91
2018-08-30T04:12:15.725Z,16.80
2018-08-30T04:14:46.121Z,16.69
2018-08-30T04:17:16.505Z,16.59
2018-08-30T04:19:46.981Z,16.51
2018-08-30T04:22:17.393Z,16.42
2018-08-30T04:24:47.832Z,16.36
2018-08-30T04:27:18.277Z,16.37
2018-08-30T04:29:48.687Z,16.40
2018-08-30T04:32:20.240Z,16.43
2018-08-30T04:34:51.601Z,16.41
2018-08-30T04:37:22.070Z,16.45
2018-08-30T04:39:52.539Z,16.47
2018-08-30T04:42:22.960Z,16.59
2018-08-30T04:44:53.188Z,16.61
2018-08-30T04:47:24.564Z,16.60
2018-08-30T04:49:55.173Z,16.57
2018-08-30T04:52:25.549Z,16.54
2018-08-30T04:54:55.948Z,16.44
2018-08-30T04:57:26.516Z,16.35
2018-08-30T04:59:57.108Z,16.29
2018-08-30T05:02:27.584Z,16.28
2018-08-30T05:04:58.153Z,16.25
2018-08-30T05:07:28.732Z,16.28
2018-08-30T05:09:59.310Z,16.39
2018-08-30T05:12:29.774Z,16.60
2018-08-30T05:15:00.225Z,17.05
2018-08-30T05:17:31.360Z,17.51
2018-08-30T05:20:01.885Z,17.95
2018-08-30T05:22:32.698Z,18.26
2018-08-30T05:25:03.768Z,18.64
2018-08-30T05:27:35.459Z,18.95
2018-08-30T05:30:06.349Z,19.39
2018-08-30T05:32:37.335Z,19.57
2018-08-30T05:35:07.852Z,19.44
2018-08-30T05:37:38.423Z,19.14
2018-08-30T05:40:09.618Z,18.90
2018-08-30T05:42:39.961Z,18.65
2018-08-30T05:45:10.750Z,18.51
2018-08-30T05:47:41.486Z,18.40
2018-08-30T05:50:11.840Z,18.97
2018-08-30T05:52:42.832Z,19.81
2018-08-30T05:55:13.506Z,20.34
2018-08-30T05:57:44.254Z,20.07
2018-08-30T06:00:14.815Z,20.39
2018-08-30T06:02:45.728Z,20.11
2018-08-30T06:05:16.542Z,19.93
2018-08-30T06:07:47.164Z,19.99
2018-08-30T06:10:17.712Z,20.28
2018-08-30T06:12:48.269Z,21.15
2018-08-30T06:15:19.149Z,22.04
2018-08-30T06:17:49.588Z,22.62
2018-08-30T06:20:20.143Z,22.44
2018-08-30T06:22:50.627Z,22.91
2018-08-30T06:25:21.321Z,23.67
2018-08-30T06:27:52.585Z,24.33
2018-08-30T06:30:23.701Z,24.43
2018-08-30T06:32:54.826Z,24.02
2018-08-30T06:35:25.858Z,23.08
2018-08-30T06:37:57.400Z,22.40
2018-08-30T06:40:28.838Z,21.95
2018-08-30T06:42:59.411Z,21.58
2018-08-30T06:45:30.328Z,21.23
2018-08-30T06:48:00.926Z,20.79
2018-08-30T06:50:31.379Z,21.13
2018-08-30T06:53:01.964Z,23.17
2018-08-30T06:55:32.412Z,24.84
2018-08-30T06:58:03.378Z,26.16
2018-08-30T07:00:33.967Z,26.86
2018-08-30T07:03:04.634Z,27.17
2018-08-30T07:05:35.204Z,27.47
2018-08-30T07:08:06.131Z,27.71
2018-08-30T07:10:36.728Z,27.95
2018-08-30T07:13:07.603Z,27.63
2018-08-30T07:15:38.239Z,27.32
2018-08-30T07:18:08.983Z,26.61
2018-08-30T07:20:39.484Z,27.45
2018-08-30T07:23:10.043Z,28.68
2018-08-30T07:25:41.023Z,28.60
2018-08-30T07:28:11.577Z,29.56
2018-08-30T07:30:42.146Z,29.77
2018-08-30T07:33:12.651Z,30.09
2018-08-30T07:35:43.226Z,30.64
2018-08-30T07:38:13.748Z,31.02
2018-08-30T07:40:44.216Z,31.43
2018-08-30T07:43:14.763Z,32.00
2018-08-30T07:45:45.813Z,32.36
2018-08-30T07:48:17.171Z,32.98
2018-08-30T07:50:48.648Z,33.35
2018-08-30T07:53:19.265Z,33.63
2018-08-30T07:55:51.475Z,32.32
2018-08-30T07:58:22.063Z,33.89
2018-08-30T08:00:52.681Z,32.41
2018-08-30T08:03:23.455Z,32.31
2018-08-30T08:05:54.264Z,33.67
2018-08-30T08:08:24.888Z,33.40
2018-08-30T08:10:55.605Z,34.07
2018-08-30T08:13:26.220Z,33.31
2018-08-30T08:15:58.445Z,33.16
2018-08-30T08:18:29.608Z,32.48
2018-08-30T08:21:00.335Z,32.79
2018-08-30T08:23:31.369Z,33.36
2018-08-30T08:26:02.028Z,34.55
2018-08-30T08:28:32.643Z,32.30
2018-08-30T08:31:03.385Z,31.23
2018-08-30T08:33:34.150Z,32.65
2018-08-30T08:36:05.126Z,33.95
2018-08-30T08:38:36.191Z,34.99
2018-08-30T08:41:07.088Z,34.21
2018-08-30T08:43:37.750Z,35.87
2018-08-30T08:46:08.547Z,33.41
2018-08-30T08:48:39.249Z,33.46
2018-08-30T08:51:10.283Z,35.46
2018-08-30T08:53:40.916Z,33.58
2018-08-30T08:56:11.922Z,31.24
2018-08-30T08:58:43.916Z,32.05
2018-08-30T09:01:14.517Z,32.97
2018-08-30T09:03:46.163Z,33.99
2018-08-30T09:06:17.022Z,34.90
2018-08-30T09:08:47.721Z,32.70
2018-08-30T09:11:18.472Z,33.66
2018-08-30T09:13:49.534Z,33.78
2018-08-30T09:16:21.679Z,34.61
2018-08-30T09:18:52.360Z,33.71
2018-08-30T09:21:23.278Z,32.56
2018-08-30T09:23:54.384Z,32.77
2018-08-30T09:26:24.959Z,33.73
2018-08-30T09:28:55.627Z,33.67
2018-08-30T09:31:26.259Z,33.51
2018-08-30T09:33:57.087Z,31.67
2018-08-30T09:36:28.089Z,31.04
2018-08-30T09:38:58.825Z,33.19
2018-08-30T09:41:29.645Z,33.60
2018-08-30T09:44:00.394Z,33.79
2018-08-30T09:46:31.012Z,31.73
2018-08-30T09:49:01.658Z,32.52
2018-08-30T09:51:33.806Z,32.57
2018-08-30T09:54:04.608Z,32.51
2018-08-30T09:56:35.363Z,32.98
2018-08-30T09:59:06.243Z,33.95
2018-08-30T10:01:42.039Z,34.51
2018-08-30T10:04:12.594Z,33.89
2018-08-30T10:06:43.324Z,33.37
2018-08-30T10:09:13.997Z,33.96
2018-08-30T10:11:45.020Z,34.34
2018-08-30T10:14:15.671Z,34.10
2018-08-30T10:16:46.356Z,34.26
2018-08-30T10:19:16.989Z,33.60
2018-08-30T10:21:47.800Z,33.28
2018-08-30T10:24:18.316Z,33.20
2018-08-30T10:26:49.072Z,33.08
2018-08-30T10:29:19.700Z,32.52
2018-08-30T10:31:50.519Z,32.00
2018-08-30T10:34:21.708Z,33.31
2018-08-30T10:36:53.798Z,35.16
2018-08-30T10:39:24.548Z,35.22
2018-08-30T10:41:55.308Z,33.30
2018-08-30T10:44:25.898Z,32.90
2018-08-30T10:46:56.968Z,31.76
2018-08-30T10:49:27.853Z,31.55
2018-08-30T10:51:58.856Z,32.79
2018-08-30T10:54:30.346Z,33.59
2018-08-30T10:57:01.566Z,34.29
2018-08-30T10:59:32.179Z,34.38
2018-08-30T11:02:02.842Z,34.37
2018-08-30T11:04:33.590Z,33.24
2018-08-30T11:07:04.323Z,33.39
2018-08-30T11:09:36.374Z,32.93
2018-08-30T11:12:07.086Z,33.83
2018-08-30T11:14:38.922Z,32.98
2018-08-30T11:17:09.537Z,34.08
2018-08-30T11:19:40.209Z,34.97
2018-08-30T11:22:11.191Z,33.96
2018-08-30T11:24:42.342Z,32.17
2018-08-30T11:27:13.090Z,31.25
2018-08-30T11:29:43.651Z,31.15
2018-08-30T11:32:15.352Z,34.04
2018-08-30T11:34:46.114Z,34.38
2018-08-30T11:37:17.154Z,34.67
2018-08-30T11:39:48.386Z,32.64
2018-08-30T11:42:19.546Z,31.63
2018-08-30T11:44:50.220Z,30.78
2018-08-30T11:47:21.413Z,31.13
2018-08-30T11:49:54.522Z,30.41
2018-08-30T11:52:25.969Z,30.45
2018-08-30T11:54:56.539Z,31.80
2018-08-30T11:57:30.254Z,31.48
2018-08-30T12:00:01.233Z,32.68
2018-08-30T12:02:32.026Z,34.45
2018-08-30T12:05:06.990Z,34.45
2018-08-30T12:07:37.805Z,33.98
2018-08-30T12:10:08.628Z,33.57
2018-08-30T12:12:39.211Z,33.85
2018-08-30T12:15:09.758Z,34.89
2018-08-30T12:17:40.326Z,35.08
2018-08-30T12:20:11.007Z,35.13
2018-08-30T12:22:41.699Z,35.59
2018-08-30T12:25:12.630Z,34.78
2018-08-30T12:27:43.262Z,34.51
2018-08-30T12:30:14.728Z,33.22
2018-08-30T12:32:45.634Z,34.31
2018-08-30T12:35:16.558Z,34.65
2018-08-30T12:37:47.135Z,32.32
2018-08-30T12:40:18.048Z,33.35
2018-08-30T12:42:49.066Z,33.09
2018-08-30T12:45:19.559Z,33.23
2018-08-30T12:47:50.056Z,32.88
2018-08-30T12:50:21.183Z,33.75
2018-08-30T12:52:52.128Z,33.18
2018-08-30T12:55:23.224Z,33.00
2018-08-30T12:57:54.025Z,32.93
2018-08-30T13:00:25.032Z,32.34
2018-08-30T13:02:55.449Z,32.28
2018-08-30T13:05:27.471Z,32.09
2018-08-30T13:07:58.082Z,31.20
2018-08-30T13:10:28.769Z,32.11
2018-08-30T13:12:59.886Z,33.52
2018-08-30T13:15:30.724Z,32.58
2018-08-30T13:18:01.336Z,33.58
2018-08-30T13:20:32.133Z,31.90
2018-08-30T13:23:04.078Z,32.77
2018-08-30T13:25:34.953Z,32.39
2018-08-30T13:28:06.279Z,32.94
2018-08-30T13:30:37.173Z,32.37
2018-08-30T13:33:08.455Z,32.07
2018-08-30T13:35:38.995Z,31.49
2018-08-30T13:38:09.722Z,31.16
2018-08-30T13:40:40.586Z,32.13
2018-08-30T13:43:11.116Z,33.02
2018-08-30T13:45:41.938Z,32.81
2018-08-30T13:48:12.625Z,31.79
2018-08-30T13:50:43.157Z,32.80
2018-08-30T13:53:14.879Z,32.97
2018-08-30T13:55:45.382Z,32.14
2018-08-30T13:58:16.297Z,31.75
2018-08-30T14:00:47.900Z,30.81
2018-08-30T14:03:19.158Z,30.57
2018-08-30T14:05:49.921Z,31.28
2018-08-30T14:08:20.526Z,31.96
2018-08-30T14:10:51.525Z,31.69
2018-08-30T14:13:22.351Z,31.76
2018-08-30T14:15:52.706Z,31.54
2018-08-30T14:18:23.679Z,31.43
2018-08-30T14:20:55.045Z,31.85
2018-08-30T14:23:25.850Z,31.69
2018-08-30T14:25:56.986Z,31.44
2018-08-30T14:28:27.858Z,31.73
2018-08-30T14:30:58.935Z,31.62
2018-08-30T14:33:31.274Z,31.20
2018-08-30T14:36:04.045Z,31.68
2018-08-30T14:38:35.996Z,30.68
2018-08-30T14:41:11.696Z,31.34
2018-08-30T14:43:43.863Z,31.03
2018-08-30T14:46:17.558Z,30.83
2018-08-30T14:48:49.733Z,31.27
2018-08-30T14:51:21.273Z,31.09
2018-08-30T14:53:54.188Z,30.81
2018-08-30T14:56:24.817Z,31.06
2018-08-30T14:58:55.667Z,30.59
2018-08-30T15:01:26.654Z,31.64
2018-08-30T15:03:57.592Z,30.98
2018-08-30T15:06:32.341Z,31.19
2018-08-30T15:09:03.890Z,31.23
2018-08-30T15:11:36.441Z,31.05
2018-08-30T15:14:08.495Z,31.15
2018-08-30T15:16:42.552Z,30.43
2018-08-30T15:19:14.158Z,30.47
2018-08-30T15:21:46.514Z,30.69
2018-08-30T15:24:17.773Z,30.50
2018-08-30T15:26:48.554Z,30.21
2018-08-30T15:29:19.895Z,29.99
2018-08-30T15:31:51.727Z,30.34
2018-08-30T15:34:24.606Z,30.22
2018-08-30T15:36:55.590Z,30.52
2018-08-30T15:39:27.576Z,29.98
2018-08-30T15:41:59.969Z,29.97
2018-08-30T15:44:30.801Z,29.88
2018-08-30T15:47:01.806Z,29.90
2018-08-30T15:49:32.346Z,29.74
2018-08-30T15:52:03.600Z,29.52
2018-08-30T15:54:34.475Z,29.27
2018-08-30T15:57:05.662Z,29.01
2018-08-30T15:59:36.745Z,29.34
2018-08-30T16:02:08.190Z,29.37
2018-08-30T16:04:39.010Z,29.47
2018-08-30T16:07:09.780Z,29.39
2018-08-30T16:09:41.108Z,29.04
2018-08-30T16:12:12.226Z,29.03
2018-08-30T16:14:43.753Z,28.91
2018-08-30T16:17:16.167Z,29.01
2018-08-30T16:19:47.159Z,28.73
2018-08-30T16:22:18.602Z,28.57
2018-08-30T16:24:51.779Z,28.52
2018-08-30T16:27:23.343Z,28.38
2018-08-30T16:29:56.277Z,28.30
2018-08-30T16:32:28.542Z,28.08
2018-08-30T16:34:59.777Z,28.06
2018-08-30T16:37:30.657Z,28.00
2018-08-30T16:40:02.305Z,27.93
2018-08-30T16:42:33.304Z,27.86
2018-08-30T16:45:05.702Z,27.79
2018-08-30T16:47:37.361Z,27.70
2018-08-30T16:50:08.330Z,27.67
2018-08-30T16:52:39.547Z,27.66
2018-08-30T16:55:10.445Z,27.63
2018-08-30T16:57:42.847Z,27.47
2018-08-30T17:00:14.397Z,27.55
2018-08-30T17:02:45.999Z,27.50
2018-08-30T17:05:17.168Z,27.23
2018-08-30T17:07:48.568Z,27.33
2018-08-30T17:10:21.262Z,26.92
2018-08-30T17:12:52.886Z,26.83
2018-08-30T17:15:25.308Z,26.87
2018-08-30T17:17:56.813Z,26.71
2018-08-30T17:20:43.107Z,26.60
2018-08-30T17:23:14.206Z,26.57
2018-08-30T17:25:46.053Z,26.48
2018-08-30T17:28:17.656Z,26.31
2018-08-30T17:30:50.041Z,26.30
2018-08-30T17:33:21.820Z,26.24
2018-08-30T17:35:54.325Z,26.25
2018-08-30T17:38:25.946Z,26.18
2018-08-30T17:40:58.585Z,26.14
2018-08-30T17:43:30.150Z,26.08
2018-08-30T17:46:01.828Z,26.07
2018-08-30T17:48:34.266Z,26.01
2018-08-30T17:51:06.786Z,25.98
2018-08-30T17:53:38.516Z,25.91
2018-08-30T17:56:10.789Z,25.87
2018-08-30T17:58:42.856Z,25.89
2018-08-30T18:01:14.840Z,25.96
2018-08-30T18:03:46.467Z,25.81
2018-08-30T18:06:18.005Z,25.51
2018-08-30T18:08:49.588Z,25.36
2018-08-30T18:11:21.139Z,25.23
2018-08-30T18:13:54.044Z,25.28
2018-08-30T18:16:25.668Z,25.21
2018-08-30T18:18:57.408Z,25.17
2018-08-30T18:21:29.760Z,25.04
2018-08-30T18:24:01.489Z,24.90
2018-08-30T18:26:33.607Z,24.82
2018-08-30T18:29:05.132Z,24.72
2018-08-30T18:31:36.884Z,24.72
2018-08-30T18:34:08.690Z,24.70
2018-08-30T18:36:40.510Z,24.65
2018-08-30T18:39:12.907Z,24.63
2018-08-30T18:41:44.972Z,24.47
2018-08-30T18:44:17.313Z,24.28
2018-08-30T18:46:49.138Z,24.28
2018-08-30T18:49:22.222Z,24.31
2018-08-30T18:51:53.916Z,24.36
2018-08-30T18:54:25.835Z,24.44
2018-08-30T18:56:57.501Z,24.31
2018-08-30T18:59:29.357Z,24.14
2018-08-30T19:02:01.337Z,24.11
2018-08-30T19:04:33.614Z,24.09
2018-08-30T19:07:05.704Z,24.09
2018-08-30T19:09:37.677Z,23.98
2018-08-30T19:12:11.624Z,23.83
2018-08-30T19:14:43.888Z,23.77
2018-08-30T19:17:20.895Z,23.63
2018-08-30T19:19:52.797Z,23.51
2018-08-30T19:22:28.009Z,23.55
2018-08-30T19:25:04.653Z,23.52
2018-08-30T19:27:37.946Z,23.43
2018-08-30T19:30:14.699Z,23.32
2018-08-30T19:32:49.022Z,23.21
2018-08-30T19:35:25.283Z,23.11
2018-08-30T19:37:59.657Z,23.03
2018-08-30T19:40:36.435Z,23.02
2018-08-30T19:43:09.664Z,22.94
2018-08-30T19:45:42.543Z,22.89
2018-08-30T19:48:15.034Z,22.80
2018-08-30T19:50:47.766Z,22.73
2018-08-30T19:53:20.970Z,22.71
2018-08-30T19:55:53.118Z,22.69
2018-08-30T19:58:25.188Z,22.66
2018-08-30T20:00:59.868Z,22.66
2018-08-30T20:03:31.914Z,22.58
2018-08-30T20:06:04.865Z,22.50
2018-08-30T20:08:37.182Z,22.55
2018-08-30T20:11:09.383Z,22.59
2018-08-30T20:13:43.098Z,22.73
2018-08-30T20:16:15.763Z,22.73
2018-08-30T20:18:48.480Z,22.70
2018-08-30T20:21:20.893Z,22.60
2018-08-30T20:23:53.682Z,22.55
2018-08-30T20:26:25.662Z,22.56
2018-08-30T20:28:57.330Z,22.49
2018-08-30T20:31:29.375Z,22.35
2018-08-30T20:34:01.797Z,22.43
2018-08-30T20:36:33.418Z,22.45
2018-08-30T20:39:06.123Z,22.51
2018-08-30T20:41:38.588Z,22.47
2018-08-30T20:44:11.186Z,22.42
2018-08-30T20:46:43.069Z,22.40
2018-08-30T20:49:15.868Z,22.40
2018-08-30T20:51:47.908Z,22.34
2018-08-30T20:54:19.765Z,22.22
2018-08-30T20:56:51.543Z,22.11
2018-08-30T20:59:24.641Z,21.95
2018-08-30T21:01:56.285Z,21.77
2018-08-30T21:04:29.496Z,21.47
2018-08-30T21:07:01.078Z,21.33
2018-08-30T21:09:35.172Z,21.25
2018-08-30T21:12:06.368Z,21.26
2018-08-30T21:14:39.701Z,21.27
2018-08-30T21:17:10.980Z,21.32
2018-08-30T21:19:42.754Z,21.23
2018-08-30T21:22:13.525Z,21.16
2018-08-30T21:24:44.208Z,21.22
2018-08-30T21:27:15.120Z,21.14
2018-08-30T21:29:45.834Z,21.18
2018-08-30T21:32:16.653Z,21.17
2018-08-30T21:34:47.156Z,21.26
2018-08-30T21:37:17.692Z,21.30
2018-08-30T21:39:48.375Z,21.28
2018-08-30T21:42:19.042Z,21.24
2018-08-30T21:44:49.699Z,21.21
2018-08-30T21:47:20.476Z,21.15
2018-08-30T21:49:52.855Z,21.00
2018-08-30T21:52:24.574Z,20.95
2018-08-30T21:54:55.635Z,20.86
2018-08-30T21:57:27.654Z,20.76
2018-08-30T21:59:58.391Z,20.78
2018-08-30T22:02:29.207Z,20.76
2018-08-30T22:05:02.618Z,20.82
2018-08-30T22:07:38.124Z,20.75
2018-08-30T22:10:11.377Z,20.69
2018-08-30T22:12:42.960Z,20.59
2018-08-30T22:15:13.987Z,20.56
2018-08-30T22:17:49.669Z,20.56
2018-08-30T22:20:20.627Z,20.54
2018-08-30T22:22:52.471Z,20.60
2018-08-30T22:25:25.517Z,20.59
2018-08-30T22:28:02.647Z,20.56
2018-08-30T22:30:33.292Z,20.63
2018-08-30T22:33:03.787Z,20.51
2018-08-30T22:35:40.707Z,20.49
2018-08-30T22:38:11.776Z,20.45
2018-08-30T22:40:43.620Z,20.38
2018-08-30T22:43:15.485Z,20.39
2018-08-30T22:45:47.324Z,20.39
2018-08-30T22:48:20.794Z,20.36
2018-08-30T22:50:51.453Z,20.24
2018-08-30T22:53:24.710Z,20.16
2018-08-30T22:55:55.370Z,20.12
2018-08-30T22:58:26.020Z,20.10
2018-08-30T23:00:56.535Z,20.12
2018-08-30T23:03:27.017Z,20.02
2018-08-30T23:05:57.654Z,20.03
2018-08-30T23:08:28.527Z,19.95
2018-08-30T23:10:59.203Z,19.90
2018-08-30T23:13:29.896Z,19.86
2018-08-30T23:16:00.562Z,19.76
2018-08-30T23:18:32.545Z,19.68
2018-08-30T23:21:03.143Z,19.62
2018-08-30T23:23:33.837Z,19.55
2018-08-30T23:26:04.315Z,19.44
2018-08-30T23:28:35.093Z,19.35
2018-08-30T23:31:05.786Z,19.37
2018-08-30T23:33:36.462Z,19.45
2018-08-30T23:36:07.109Z,19.52
2018-08-30T23:38:38.251Z,19.55
2018-08-30T23:41:10.215Z,19.59
2018-08-30T23:43:42.051Z,19.54
2018-08-30T23:46:12.825Z,19.44
2018-08-30T23:48:43.118Z,19.37
2018-08-30T23:51:13.778Z,19.31
2018-08-30T23:53:44.282Z,19.35
2018-08-30T23:56:14.814Z,19.35
2018-08-30T23:59:01.788Z,19.34
